sensor_id;sensor_type;location;lat;lon;timestamp;pressure;altitude;pressure_sealevel;temperature;humidity
69219;BME280;56232;53.384;-2.732;2022-07-06T00:00:10;102337.28;;;16.50;30.02
69219;BME280;56232;53.384;-2.732;2022-07-06T00:02:35;102340.13;;;16.47;30.34
69219;BME280;56232;53.384;-2.732;2022-07-06T00:05:01;102339.64;;;16.37;29.97
69219;BME280;56232;53.384;-2.732;2022-07-06T00:07:26;102333.98;;;17.01;29.99
69219;BME280;56232;53.384;-2.732;2022-07-06T00:09:52;102336.09;;;16.58;29.30
69219;BME280;56232;53.384;-2.732;2022-07-06T00:12:17;102334.45;;;16.64;29.97
69219;BME280;56232;53.384;-2.732;2022-07-06T00:14:43;102336.84;;;16.86;29.77
69219;BME280;56232;53.384;-2.732;2022-07-06T00:17:09;102336.37;;;17.00;30.21
69219;BME280;56232;53.384;-2.732;2022-07-06T00:19:34;102332.15;;;16.89;30.16
69219;BME280;56232;53.384;-2.732;2022-07-06T00:22:00;102333.14;;;16.82;29.94
69219;BME280;56232;53.384;-2.732;2022-07-06T00:24:26;102332.53;;;16.85;31.02
69219;BME280;56232;53.384;-2.732;2022-07-06T00:26:51;102327.94;;;16.86;30.00
69219;BME280;56232;53.384;-2.732;2022-07-06T00:29:17;102328.82;;;17.47;30.69
69219;BME280;56232;53.384;-2.732;2022-07-06T00:31:42;102328.74;;;16.84;29.47
69219;BME280;56232;53.384;-2.732;2022-07-06T00:34:08;102330.04;;;16.80;31.28
69219;BME280;56232;53.384;-2.732;2022-07-06T00:36:34;102332.73;;;16.79;29.76
69219;BME280;56232;53.384;-2.732;2022-07-06T00:38:59;102331.90;;;16.84;30.07
69219;BME280;56232;53.384;-2.732;2022-07-06T00:41:25;102331.05;;;16.80;30.07
69219;BME280;56232;53.384;-2.732;2022-07-06T00:43:52;102329.48;;;16.97;29.81
69219;BME280;56232;53.384;-2.732;2022-07-06T00:46:16;102332.63;;;17.05;30.55
69219;BME280;56232;53.384;-2.732;2022-07-06T00:48:42;102331.80;;;16.91;30.01
69219;BME280;56232;53.384;-2.732;2022-07-06T00:51:07;102332.80;;;16.76;30.12
69219;BME280;56232;53.384;-2.732;2022-07-06T00:53:33;102334.30;;;17.26;30.03
69219;BME280;56232;53.384;-2.732;2022-07-06T00:55:59;102337.43;;;16.63;30.34
69219;BME280;56232;53.384;-2.732;2022-07-06T00:58:25;102342.83;;;16.60;30.05
69219;BME280;56232;53.384;-2.732;2022-07-06T01:00:50;102346.42;;;17.09;29.78
69219;BME280;56232;53.384;-2.732;2022-07-06T01:03:15;102343.75;;;16.99;30.14
69219;BME280;56232;53.384;-2.732;2022-07-06T01:05:41;102344.67;;;16.41;30.44
69219;BME280;56232;53.384;-2.732;2022-07-06T01:08:07;102343.39;;;16.27;30.99
69219;BME280;56232;53.384;-2.732;2022-07-06T01:10:32;102342.94;;;16.73;30.00
69219;BME280;56232;53.384;-2.732;2022-07-06T01:12:58;102345.02;;;15.89;30.73
69219;BME280;56232;53.384;-2.732;2022-07-06T01:15:25;102349.29;;;15.76;31.45
69219;BME280;56232;53.384;-2.732;2022-07-06T01:17:49;102350.35;;;15.59;32.30
69219;BME280;56232;53.384;-2.732;2022-07-06T01:20:15;102346.29;;;15.52;31.82
69219;BME280;56232;53.384;-2.732;2022-07-06T01:22:40;102344.23;;;15.26;32.68
69219;BME280;56232;53.384;-2.732;2022-07-06T01:25:06;102339.71;;;16.28;31.45
69219;BME280;56232;53.384;-2.732;2022-07-06T01:27:31;102338.00;;;15.84;32.02
69219;BME280;56232;53.384;-2.732;2022-07-06T01:30:02;102331.99;;;16.04;32.30
69219;BME280;56232;53.384;-2.732;2022-07-06T01:32:24;102334.50;;;15.98;32.30
69219;BME280;56232;53.384;-2.732;2022-07-06T01:34:48;102333.75;;;16.46;32.33
69219;BME280;56232;53.384;-2.732;2022-07-06T01:37:13;102333.37;;;16.37;32.00
69219;BME280;56232;53.384;-2.732;2022-07-06T01:39:39;102330.52;;;15.61;32.47
69219;BME280;56232;53.384;-2.732;2022-07-06T01:42:05;102321.85;;;16.58;33.20
69219;BME280;56232;53.384;-2.732;2022-07-06T01:44:30;102317.07;;;15.61;31.26
69219;BME280;56232;53.384;-2.732;2022-07-06T01:46:56;102310.80;;;15.72;31.18
69219;BME280;56232;53.384;-2.732;2022-07-06T01:49:22;102300.38;;;16.26;32.64
69219;BME280;56232;53.384;-2.732;2022-07-06T01:51:47;102284.19;;;15.47;32.20
69219;BME280;56232;53.384;-2.732;2022-07-06T01:54:12;102273.72;;;16.17;32.59
69219;BME280;56232;53.384;-2.732;2022-07-06T01:56:38;102275.61;;;15.71;32.59
69219;BME280;56232;53.384;-2.732;2022-07-06T01:59:03;102281.83;;;16.08;32.16
69219;BME280;56232;53.384;-2.732;2022-07-06T02:01:29;102285.64;;;17.33;32.00
69219;BME280;56232;53.384;-2.732;2022-07-06T02:03:55;102284.38;;;16.37;31.82
69219;BME280;56232;53.384;-2.732;2022-07-06T02:06:20;102274.26;;;17.59;31.89
69219;BME280;56232;53.384;-2.732;2022-07-06T02:08:46;102270.74;;;16.50;32.24
69219;BME280;56232;53.384;-2.732;2022-07-06T02:11:12;102272.11;;;17.25;33.00
69219;BME280;56232;53.384;-2.732;2022-07-06T02:13:37;102273.61;;;17.38;31.71
69219;BME280;56232;53.384;-2.732;2022-07-06T02:16:03;102274.21;;;17.33;30.52
69219;BME280;56232;53.384;-2.732;2022-07-06T02:18:28;102269.18;;;16.71;31.16
69219;BME280;56232;53.384;-2.732;2022-07-06T02:20:54;102267.60;;;16.67;30.68
69219;BME280;56232;53.384;-2.732;2022-07-06T02:23:20;102269.16;;;16.91;30.99
69219;BME280;56232;53.384;-2.732;2022-07-06T02:25:45;102263.01;;;16.97;30.93
69219;BME280;56232;53.384;-2.732;2022-07-06T02:28:12;102259.92;;;17.05;31.18
69219;BME280;56232;53.384;-2.732;2022-07-06T02:30:36;102258.37;;;17.23;31.63
69219;BME280;56232;53.384;-2.732;2022-07-06T02:33:02;102254.38;;;16.94;31.04
69219;BME280;56232;53.384;-2.732;2022-07-06T02:35:28;102252.74;;;17.56;30.13
69219;BME280;56232;53.384;-2.732;2022-07-06T02:37:53;102256.80;;;17.47;31.23
69219;BME280;56232;53.384;-2.732;2022-07-06T02:40:19;102257.61;;;17.52;30.94
69219;BME280;56232;53.384;-2.732;2022-07-06T02:42:45;102258.37;;;17.52;30.07
69219;BME280;56232;53.384;-2.732;2022-07-06T02:45:10;102262.01;;;17.49;30.03
69219;BME280;56232;53.384;-2.732;2022-07-06T02:47:36;102266.94;;;17.41;31.34
69219;BME280;56232;53.384;-2.732;2022-07-06T02:50:01;102266.50;;;17.36;30.69
69219;BME280;56232;53.384;-2.732;2022-07-06T02:52:27;102256.91;;;17.21;30.49
69219;BME280;56232;53.384;-2.732;2022-07-06T02:54:52;102257.69;;;16.93;30.31
69219;BME280;56232;53.384;-2.732;2022-07-06T02:57:18;102265.33;;;16.89;30.23
69219;BME280;56232;53.384;-2.732;2022-07-06T02:59:44;102269.20;;;18.03;30.90
69219;BME280;56232;53.384;-2.732;2022-07-06T03:02:09;102272.77;;;17.01;30.24
69219;BME280;56232;53.384;-2.732;2022-07-06T03:04:35;102276.89;;;16.43;30.33
69219;BME280;56232;53.384;-2.732;2022-07-06T03:07:01;102274.42;;;16.71;30.66
69219;BME280;56232;53.384;-2.732;2022-07-06T03:09:26;102277.73;;;17.21;31.07
69219;BME280;56232;53.384;-2.732;2022-07-06T03:11:52;102271.16;;;16.47;30.30
69219;BME280;56232;53.384;-2.732;2022-07-06T03:14:17;102267.87;;;16.43;30.87
69219;BME280;56232;53.384;-2.732;2022-07-06T03:16:43;102266.23;;;17.52;31.97
69219;BME280;56232;53.384;-2.732;2022-07-06T03:19:08;102265.27;;;16.37;30.66
69219;BME280;56232;53.384;-2.732;2022-07-06T03:21:34;102266.62;;;16.83;30.77
69219;BME280;56232;53.384;-2.732;2022-07-06T03:23:59;102270.86;;;17.15;30.95
69219;BME280;56232;53.384;-2.732;2022-07-06T03:26:25;102268.33;;;16.57;31.14
69219;BME280;56232;53.384;-2.732;2022-07-06T03:28:50;102263.69;;;17.12;31.67
69219;BME280;56232;53.384;-2.732;2022-07-06T03:31:16;102266.33;;;16.71;31.53
69219;BME280;56232;53.384;-2.732;2022-07-06T03:33:42;102267.64;;;16.60;32.67
69219;BME280;56232;53.384;-2.732;2022-07-06T03:36:07;102272.69;;;16.00;31.66
69219;BME280;56232;53.384;-2.732;2022-07-06T03:38:32;102272.74;;;16.64;31.63
69219;BME280;56232;53.384;-2.732;2022-07-06T03:40:58;102273.29;;;16.22;31.43
69219;BME280;56232;53.384;-2.732;2022-07-06T03:43:24;102269.57;;;17.76;31.70
69219;BME280;56232;53.384;-2.732;2022-07-06T03:45:49;102268.42;;;17.14;31.78
69219;BME280;56232;53.384;-2.732;2022-07-06T03:48:15;102279.95;;;16.88;31.49
69219;BME280;56232;53.384;-2.732;2022-07-06T03:50:40;102276.90;;;16.18;32.44
69219;BME280;56232;53.384;-2.732;2022-07-06T03:53:06;102271.04;;;16.48;31.78
69219;BME280;56232;53.384;-2.732;2022-07-06T03:55:31;102264.57;;;15.30;32.09
69219;BME280;56232;53.384;-2.732;2022-07-06T03:57:57;102267.13;;;16.61;32.47
69219;BME280;56232;53.384;-2.732;2022-07-06T04:00:24;102265.59;;;16.06;32.40
69219;BME280;56232;53.384;-2.732;2022-07-06T04:02:48;102273.90;;;16.52;32.69
69219;BME280;56232;53.384;-2.732;2022-07-06T04:05:14;102276.06;;;15.56;32.58
69219;BME280;56232;53.384;-2.732;2022-07-06T04:07:39;102273.14;;;16.82;31.29
69219;BME280;56232;53.384;-2.732;2022-07-06T04:10:06;102280.56;;;16.83;31.62
69219;BME280;56232;53.384;-2.732;2022-07-06T04:12:30;102283.26;;;16.32;32.09
69219;BME280;56232;53.384;-2.732;2022-07-06T04:14:56;102275.51;;;16.40;31.79
69219;BME280;56232;53.384;-2.732;2022-07-06T04:17:23;102273.22;;;15.90;31.20
69219;BME280;56232;53.384;-2.732;2022-07-06T04:19:47;102277.02;;;15.93;32.12
69219;BME280;56232;53.384;-2.732;2022-07-06T04:22:13;102275.84;;;17.03;32.12
69219;BME280;56232;53.384;-2.732;2022-07-06T04:24:38;102276.85;;;16.56;32.72
69219;BME280;56232;53.384;-2.732;2022-07-06T04:27:04;102285.25;;;16.10;31.77
69219;BME280;56232;53.384;-2.732;2022-07-06T04:29:29;102281.57;;;17.10;30.79
69219;BME280;56232;53.384;-2.732;2022-07-06T04:31:55;102278.11;;;16.11;31.55
69219;BME280;56232;53.384;-2.732;2022-07-06T04:34:21;102275.49;;;16.28;31.84
69219;BME280;56232;53.384;-2.732;2022-07-06T04:36:46;102276.48;;;16.44;31.65
69219;BME280;56232;53.384;-2.732;2022-07-06T04:39:12;102285.29;;;17.70;31.09
69219;BME280;56232;53.384;-2.732;2022-07-06T04:41:37;102287.36;;;16.48;30.93
69219;BME280;56232;53.384;-2.732;2022-07-06T04:44:03;102281.65;;;16.36;30.84
69219;BME280;56232;53.384;-2.732;2022-07-06T04:46:29;102272.97;;;16.15;31.47
69219;BME280;56232;53.384;-2.732;2022-07-06T04:48:54;102278.19;;;17.14;31.31
69219;BME280;56232;53.384;-2.732;2022-07-06T04:51:20;102278.48;;;16.95;31.85
69219;BME280;56232;53.384;-2.732;2022-07-06T04:53:45;102279.59;;;16.92;31.66
69219;BME280;56232;53.384;-2.732;2022-07-06T04:56:11;102281.83;;;16.39;31.89
69219;BME280;56232;53.384;-2.732;2022-07-06T04:58:36;102282.13;;;16.79;31.31
69219;BME280;56232;53.384;-2.732;2022-07-06T05:01:02;102284.44;;;15.80;31.80
69219;BME280;56232;53.384;-2.732;2022-07-06T05:03:28;102286.87;;;15.93;31.58
69219;BME280;56232;53.384;-2.732;2022-07-06T05:05:53;102284.36;;;16.98;31.68
69219;BME280;56232;53.384;-2.732;2022-07-06T05:08:19;102283.60;;;17.06;31.71
69219;BME280;56232;53.384;-2.732;2022-07-06T05:10:44;102285.05;;;16.71;32.24
69219;BME280;56232;53.384;-2.732;2022-07-06T05:13:10;102280.36;;;17.19;31.63
69219;BME280;56232;53.384;-2.732;2022-07-06T05:15:35;102277.95;;;17.19;31.98
69219;BME280;56232;53.384;-2.732;2022-07-06T05:18:01;102281.00;;;16.26;31.63
69219;BME280;56232;53.384;-2.732;2022-07-06T05:20:26;102280.16;;;16.97;31.51
69219;BME280;56232;53.384;-2.732;2022-07-06T05:22:52;102285.57;;;17.03;31.58
69219;BME280;56232;53.384;-2.732;2022-07-06T05:25:18;102281.96;;;16.46;31.09
69219;BME280;56232;53.384;-2.732;2022-07-06T05:27:43;102280.43;;;16.30;31.04
69219;BME280;56232;53.384;-2.732;2022-07-06T05:30:09;102286.52;;;16.15;31.91
69219;BME280;56232;53.384;-2.732;2022-07-06T05:32:34;102295.51;;;16.89;31.40
69219;BME280;56232;53.384;-2.732;2022-07-06T05:35:14;102292.92;;;16.87;31.29
69219;BME280;56232;53.384;-2.732;2022-07-06T05:37:25;102291.13;;;16.78;31.54
69219;BME280;56232;53.384;-2.732;2022-07-06T05:39:51;102295.73;;;17.33;32.04
69219;BME280;56232;53.384;-2.732;2022-07-06T05:42:16;102299.93;;;16.13;30.59
69219;BME280;56232;53.384;-2.732;2022-07-06T05:44:42;102298.23;;;16.65;30.70
69219;BME280;56232;53.384;-2.732;2022-07-06T05:47:08;102298.55;;;16.07;31.77
69219;BME280;56232;53.384;-2.732;2022-07-06T05:49:33;102299.56;;;16.79;31.83
69219;BME280;56232;53.384;-2.732;2022-07-06T05:51:59;102296.92;;;16.71;32.18
69219;BME280;56232;53.384;-2.732;2022-07-06T05:54:25;102289.68;;;16.56;31.91
69219;BME280;56232;53.384;-2.732;2022-07-06T05:56:50;102290.58;;;15.83;31.98
69219;BME280;56232;53.384;-2.732;2022-07-06T05:59:16;102293.10;;;16.75;31.49
69219;BME280;56232;53.384;-2.732;2022-07-06T06:01:41;102295.67;;;16.25;31.32
69219;BME280;56232;53.384;-2.732;2022-07-06T06:04:07;102298.76;;;16.07;32.34
69219;BME280;56232;53.384;-2.732;2022-07-06T06:06:32;102295.75;;;16.41;31.94
69219;BME280;56232;53.384;-2.732;2022-07-06T06:08:58;102298.25;;;15.95;32.01
69219;BME280;56232;53.384;-2.732;2022-07-06T06:11:25;102295.80;;;16.32;32.75
69219;BME280;56232;53.384;-2.732;2022-07-06T06:13:49;102296.06;;;16.54;32.34
69219;BME280;56232;53.384;-2.732;2022-07-06T06:16:15;102299.74;;;16.76;31.79
69219;BME280;56232;53.384;-2.732;2022-07-06T06:18:40;102308.76;;;16.39;31.75
69219;BME280;56232;53.384;-2.732;2022-07-06T06:21:06;102310.60;;;16.22;32.24
69219;BME280;56232;53.384;-2.732;2022-07-06T06:23:31;102315.74;;;16.67;32.68
69219;BME280;56232;53.384;-2.732;2022-07-06T06:25:57;102309.01;;;17.05;32.46
69219;BME280;56232;53.384;-2.732;2022-07-06T06:28:24;102314.25;;;16.34;33.69
69219;BME280;56232;53.384;-2.732;2022-07-06T06:30:48;102314.78;;;16.06;33.36
69219;BME280;56232;53.384;-2.732;2022-07-06T06:33:16;102319.48;;;15.86;33.45
69219;BME280;56232;53.384;-2.732;2022-07-06T06:35:42;102322.71;;;17.11;32.72
69219;BME280;56232;53.384;-2.732;2022-07-06T06:38:05;102327.17;;;15.98;32.70
69219;BME280;56232;53.384;-2.732;2022-07-06T06:40:30;102326.39;;;16.43;33.57
69219;BME280;56232;53.384;-2.732;2022-07-06T06:42:56;102321.56;;;16.48;33.02
69219;BME280;56232;53.384;-2.732;2022-07-06T06:45:22;102307.68;;;15.55;33.70
69219;BME280;56232;53.384;-2.732;2022-07-06T06:47:47;102301.30;;;15.04;33.75
69219;BME280;56232;53.384;-2.732;2022-07-06T06:50:13;102301.92;;;16.50;32.91
69219;BME280;56232;53.384;-2.732;2022-07-06T06:52:38;102297.89;;;16.19;33.05
69219;BME280;56232;53.384;-2.732;2022-07-06T06:55:05;102306.16;;;16.74;34.07
69219;BME280;56232;53.384;-2.732;2022-07-06T06:57:30;102315.22;;;16.89;33.41
69219;BME280;56232;53.384;-2.732;2022-07-06T06:59:55;102318.45;;;15.87;32.86
69219;BME280;56232;53.384;-2.732;2022-07-06T07:02:21;102323.18;;;16.71;33.08
69219;BME280;56232;53.384;-2.732;2022-07-06T07:04:46;102330.03;;;16.49;32.65
69219;BME280;56232;53.384;-2.732;2022-07-06T07:07:12;102332.89;;;17.68;32.94
69219;BME280;56232;53.384;-2.732;2022-07-06T07:09:38;102328.90;;;17.16;32.57
69219;BME280;56232;53.384;-2.732;2022-07-06T07:12:04;102325.14;;;17.87;33.27
69219;BME280;56232;53.384;-2.732;2022-07-06T07:14:29;102326.66;;;17.06;32.33
69219;BME280;56232;53.384;-2.732;2022-07-06T07:16:55;102325.97;;;17.41;32.69
69219;BME280;56232;53.384;-2.732;2022-07-06T07:19:20;102321.51;;;17.75;32.26
69219;BME280;56232;53.384;-2.732;2022-07-06T07:21:46;102321.49;;;17.91;31.43
69219;BME280;56232;53.384;-2.732;2022-07-06T07:24:11;102328.19;;;17.11;31.88
69219;BME280;56232;53.384;-2.732;2022-07-06T07:26:37;102328.23;;;18.43;31.48
69219;BME280;56232;53.384;-2.732;2022-07-06T07:29:08;102333.44;;;17.97;31.39
69219;BME280;56232;53.384;-2.732;2022-07-06T07:31:28;102339.25;;;18.10;31.94
69219;BME280;56232;53.384;-2.732;2022-07-06T07:33:54;102335.21;;;17.71;32.08
69219;BME280;56232;53.384;-2.732;2022-07-06T07:36:19;102330.07;;;18.77;31.69
69219;BME280;56232;53.384;-2.732;2022-07-06T07:38:45;102330.12;;;18.21;31.54
69219;BME280;56232;53.384;-2.732;2022-07-06T07:41:11;102334.87;;;17.84;31.70
69219;BME280;56232;53.384;-2.732;2022-07-06T07:43:36;102332.81;;;17.68;32.27
69219;BME280;56232;53.384;-2.732;2022-07-06T07:46:02;102332.06;;;18.41;31.40
69219;BME280;56232;53.384;-2.732;2022-07-06T07:48:27;102323.67;;;18.53;31.49
69219;BME280;56232;53.384;-2.732;2022-07-06T07:50:53;102326.66;;;18.96;31.23
69219;BME280;56232;53.384;-2.732;2022-07-06T07:53:19;102326.09;;;18.42;31.55
69219;BME280;56232;53.384;-2.732;2022-07-06T07:55:44;102327.31;;;19.06;31.79
69219;BME280;56232;53.384;-2.732;2022-07-06T07:58:10;102331.22;;;18.38;31.57
69219;BME280;56232;53.384;-2.732;2022-07-06T08:00:35;102329.28;;;18.27;31.53
69219;BME280;56232;53.384;-2.732;2022-07-06T08:03:01;102327.48;;;18.22;31.45
69219;BME280;56232;53.384;-2.732;2022-07-06T08:05:26;102325.86;;;18.26;30.92
69219;BME280;56232;53.384;-2.732;2022-07-06T08:07:52;102319.93;;;18.87;30.93
69219;BME280;56232;53.384;-2.732;2022-07-06T08:10:18;102316.01;;;18.18;31.78
69219;BME280;56232;53.384;-2.732;2022-07-06T08:12:43;102313.82;;;18.69;31.78
69219;BME280;56232;53.384;-2.732;2022-07-06T08:15:09;102320.17;;;18.43;31.59
69219;BME280;56232;53.384;-2.732;2022-07-06T08:17:34;102318.01;;;18.64;32.19
69219;BME280;56232;53.384;-2.732;2022-07-06T08:20:00;102318.20;;;18.99;31.39
69219;BME280;56232;53.384;-2.732;2022-07-06T08:22:30;102318.66;;;18.97;31.29
69219;BME280;56232;53.384;-2.732;2022-07-06T08:24:51;102318.33;;;19.04;31.49
69219;BME280;56232;53.384;-2.732;2022-07-06T08:27:16;102318.80;;;19.88;31.84
69219;BME280;56232;53.384;-2.732;2022-07-06T08:29:42;102319.11;;;18.95;31.72
69219;BME280;56232;53.384;-2.732;2022-07-06T08:32:08;102324.34;;;19.41;31.27
69219;BME280;56232;53.384;-2.732;2022-07-06T08:34:33;102327.17;;;18.81;30.68
69219;BME280;56232;53.384;-2.732;2022-07-06T08:36:59;102326.09;;;18.31;31.41
69219;BME280;56232;53.384;-2.732;2022-07-06T08:39:25;102325.31;;;19.42;31.56
69219;BME280;56232;53.384;-2.732;2022-07-06T08:41:50;102326.14;;;19.65;30.80
69219;BME280;56232;53.384;-2.732;2022-07-06T08:44:16;102327.63;;;19.07;31.17
69219;BME280;56232;53.384;-2.732;2022-07-06T08:46:41;102330.34;;;19.01;30.78
69219;BME280;56232;53.384;-2.732;2022-07-06T08:49:07;102330.65;;;19.24;30.70
69219;BME280;56232;53.384;-2.732;2022-07-06T08:51:34;102336.55;;;19.15;30.82
69219;BME280;56232;53.384;-2.732;2022-07-06T08:53:58;102337.94;;;19.64;30.93
69219;BME280;56232;53.384;-2.732;2022-07-06T08:56:25;102336.72;;;20.17;30.49
69219;BME280;56232;53.384;-2.732;2022-07-06T08:58:50;102334.40;;;19.75;30.84
69219;BME280;56232;53.384;-2.732;2022-07-06T09:01:15;102330.98;;;19.04;31.20
69219;BME280;56232;53.384;-2.732;2022-07-06T09:03:41;102328.89;;;19.32;30.83
69219;BME280;56232;53.384;-2.732;2022-07-06T09:06:06;102333.49;;;19.52;31.00
69219;BME280;56232;53.384;-2.732;2022-07-06T09:08:32;102337.13;;;20.65;30.55
69219;BME280;56232;53.384;-2.732;2022-07-06T09:10:57;102330.38;;;21.16;30.51
69219;BME280;56232;53.384;-2.732;2022-07-06T09:13:23;102339.45;;;20.77;30.45
69219;BME280;56232;53.384;-2.732;2022-07-06T09:15:48;102335.35;;;20.47;30.18
69219;BME280;56232;53.384;-2.732;2022-07-06T09:18:13;102330.61;;;20.45;30.07
69219;BME280;56232;53.384;-2.732;2022-07-06T09:20:40;102320.57;;;20.91;29.64
69219;BME280;56232;53.384;-2.732;2022-07-06T09:23:05;102321.16;;;20.59;29.27
69219;BME280;56232;53.384;-2.732;2022-07-06T09:25:30;102317.90;;;21.52;29.75
69219;BME280;56232;53.384;-2.732;2022-07-06T09:27:57;102324.71;;;21.12;30.02
69219;BME280;56232;53.384;-2.732;2022-07-06T09:30:22;102322.97;;;20.66;29.78
69219;BME280;56232;53.384;-2.732;2022-07-06T09:32:48;102318.22;;;20.87;29.77
69219;BME280;56232;53.384;-2.732;2022-07-06T09:35:21;102323.52;;;22.30;28.99
69219;BME280;56232;53.384;-2.732;2022-07-06T09:38:16;102320.23;;;22.24;28.33
69219;BME280;56232;53.384;-2.732;2022-07-06T09:42:29;102323.57;;;23.19;27.47
69219;BME280;56232;53.384;-2.732;2022-07-06T09:44:54;102326.73;;;23.21;27.45
69219;BME280;56232;53.384;-2.732;2022-07-06T09:47:20;102322.49;;;22.42;27.74
69219;BME280;56232;53.384;-2.732;2022-07-06T09:49:46;102313.62;;;22.50;27.46
69219;BME280;56232;53.384;-2.732;2022-07-06T09:52:12;102312.92;;;22.71;27.34
69219;BME280;56232;53.384;-2.732;2022-07-06T09:54:38;102314.65;;;22.86;27.55
69219;BME280;56232;53.384;-2.732;2022-07-06T09:57:03;102318.99;;;23.29;27.25
69219;BME280;56232;53.384;-2.732;2022-07-06T09:59:30;102321.95;;;23.48;27.33
69219;BME280;56232;53.384;-2.732;2022-07-06T10:01:54;102322.66;;;23.52;27.32
69219;BME280;56232;53.384;-2.732;2022-07-06T10:04:19;102320.97;;;23.24;27.31
69219;BME280;56232;53.384;-2.732;2022-07-06T10:06:44;102326.26;;;22.83;27.58
69219;BME280;56232;53.384;-2.732;2022-07-06T10:09:11;102320.00;;;22.67;27.66
69219;BME280;56232;53.384;-2.732;2022-07-06T10:11:38;102331.62;;;23.12;27.52
69219;BME280;56232;53.384;-2.732;2022-07-06T10:14:03;102332.07;;;23.58;27.25
69219;BME280;56232;53.384;-2.732;2022-07-06T10:16:26;102339.36;;;23.24;27.04
69219;BME280;56232;53.384;-2.732;2022-07-06T10:18:52;102336.46;;;22.15;27.54
69219;BME280;56232;53.384;-2.732;2022-07-06T10:21:17;102335.85;;;22.40;27.76
69219;BME280;56232;53.384;-2.732;2022-07-06T10:23:43;102333.43;;;23.40;27.82
69219;BME280;56232;53.384;-2.732;2022-07-06T10:26:09;102337.99;;;23.20;27.99
69219;BME280;56232;53.384;-2.732;2022-07-06T10:28:33;102322.16;;;22.24;28.01
69219;BME280;56232;53.384;-2.732;2022-07-06T10:30:59;102324.03;;;22.86;27.80
69219;BME280;56232;53.384;-2.732;2022-07-06T10:33:25;102328.67;;;24.23;26.96
69219;BME280;56232;53.384;-2.732;2022-07-06T10:35:50;102319.61;;;23.76;26.80
69219;BME280;56232;53.384;-2.732;2022-07-06T10:38:15;102321.74;;;23.39;27.21
69219;BME280;56232;53.384;-2.732;2022-07-06T10:40:41;102318.33;;;23.78;27.33
69219;BME280;56232;53.384;-2.732;2022-07-06T10:43:09;102320.80;;;23.42;27.22
69219;BME280;56232;53.384;-2.732;2022-07-06T10:50:33;102327.80;;;24.08;26.55
69219;BME280;56232;53.384;-2.732;2022-07-06T10:52:51;102332.62;;;24.07;26.36
69219;BME280;56232;53.384;-2.732;2022-07-06T10:57:51;102321.41;;;24.96;25.88
69219;BME280;56232;53.384;-2.732;2022-07-06T11:00:06;102312.82;;;23.47;26.45
69219;BME280;56232;53.384;-2.732;2022-07-06T11:02:37;102306.61;;;23.94;27.10
69219;BME280;56232;53.384;-2.732;2022-07-06T11:04:56;102303.40;;;23.64;27.56
69219;BME280;56232;53.384;-2.732;2022-07-06T11:07:22;102291.91;;;23.51;27.09
69219;BME280;56232;53.384;-2.732;2022-07-06T11:09:53;102295.76;;;25.00;26.49
69219;BME280;56232;53.384;-2.732;2022-07-06T11:12:15;102294.14;;;25.33;25.99
69219;BME280;56232;53.384;-2.732;2022-07-06T11:14:39;102288.50;;;25.02;26.18
69219;BME280;56232;53.384;-2.732;2022-07-06T11:17:04;102289.26;;;24.98;25.85
69219;BME280;56232;53.384;-2.732;2022-07-06T11:19:29;102281.25;;;24.81;26.02
69219;BME280;56232;53.384;-2.732;2022-07-06T11:21:56;102273.29;;;25.40;25.86
69219;BME280;56232;53.384;-2.732;2022-07-06T11:24:21;102276.69;;;25.74;25.42
69219;BME280;56232;53.384;-2.732;2022-07-06T11:26:48;102276.78;;;25.09;25.37
69219;BME280;56232;53.384;-2.732;2022-07-06T11:29:11;102278.69;;;25.60;25.47
69219;BME280;56232;53.384;-2.732;2022-07-06T11:31:38;102287.63;;;25.36;25.61
69219;BME280;56232;53.384;-2.732;2022-07-06T11:34:03;102286.22;;;25.14;25.53
69219;BME280;56232;53.384;-2.732;2022-07-06T11:36:28;102291.98;;;24.61;25.79
69219;BME280;56232;53.384;-2.732;2022-07-06T11:38:53;102284.82;;;24.58;26.34
69219;BME280;56232;53.384;-2.732;2022-07-06T11:41:25;102284.61;;;23.39;26.87
69219;BME280;56232;53.384;-2.732;2022-07-06T11:43:46;102283.34;;;23.35;26.91
69219;BME280;56232;53.384;-2.732;2022-07-06T11:48:35;102284.42;;;24.75;26.74
69219;BME280;56232;53.384;-2.732;2022-07-06T11:51:03;102284.89;;;24.17;26.74
69219;BME280;56232;53.384;-2.732;2022-07-06T11:53:27;102285.62;;;25.36;26.89
69219;BME280;56232;53.384;-2.732;2022-07-06T11:55:52;102285.90;;;24.53;26.74
69219;BME280;56232;53.384;-2.732;2022-07-06T11:58:20;102280.03;;;24.36;26.70
69219;BME280;56232;53.384;-2.732;2022-07-06T12:00:43;102278.48;;;25.35;26.30
69219;BME280;56232;53.384;-2.732;2022-07-06T12:03:09;102279.04;;;25.53;25.90
69219;BME280;56232;53.384;-2.732;2022-07-06T12:05:34;102285.40;;;25.44;25.72
69219;BME280;56232;53.384;-2.732;2022-07-06T12:08:04;102283.69;;;25.65;25.79
69219;BME280;56232;53.384;-2.732;2022-07-06T12:10:31;102283.68;;;25.33;26.09
69219;BME280;56232;53.384;-2.732;2022-07-06T12:12:51;102281.10;;;24.58;25.97
69219;BME280;56232;53.384;-2.732;2022-07-06T12:15:16;102286.41;;;24.52;26.28
69219;BME280;56232;53.384;-2.732;2022-07-06T12:17:46;102287.30;;;23.75;26.63
69219;BME280;56232;53.384;-2.732;2022-07-06T12:20:08;102289.91;;;24.36;26.51
69219;BME280;56232;53.384;-2.732;2022-07-06T12:22:32;102285.09;;;23.81;27.02
69219;BME280;56232;53.384;-2.732;2022-07-06T12:24:58;102283.50;;;23.35;27.67
69219;BME280;56232;53.384;-2.732;2022-07-06T12:27:25;102280.88;;;22.77;28.33
69219;BME280;56232;53.384;-2.732;2022-07-06T12:29:49;102277.51;;;22.82;28.74
69219;BME280;56232;53.384;-2.732;2022-07-06T12:32:16;102273.89;;;22.80;28.87
69219;BME280;56232;53.384;-2.732;2022-07-06T12:34:40;102276.72;;;22.44;28.76
69219;BME280;56232;53.384;-2.732;2022-07-06T12:37:08;102272.04;;;22.25;28.88
69219;BME280;56232;53.384;-2.732;2022-07-06T12:39:31;102268.32;;;22.99;28.82
69219;BME280;56232;53.384;-2.732;2022-07-06T12:42:01;102264.18;;;22.37;28.75